createdAt,value
2024-04-24T00:02:23.474Z,37.23
2024-04-24T00:04:53.679Z,37.85
2024-04-24T00:07:23.851Z,37.63
2024-04-24T00:09:56.646Z,37.48
2024-04-24T00:12:26.964Z,37.58
2024-04-24T00:14:57.171Z,37.87
2024-04-24T00:17:27.784Z,37.70
2024-04-24T00:19:58.063Z,37.32
2024-04-24T00:22:28.443Z,36.98
2024-04-24T00:25:01.377Z,37.64
2024-04-24T00:27:31.556Z,37.43
2024-04-24T00:30:04.739Z,37.34
2024-04-24T00:32:35.030Z,37.05
2024-04-24T00:35:05.478Z,37.46
2024-04-24T00:37:41.191Z,37.41
2024-04-24T00:40:14.971Z,37.14
2024-04-24T00:42:46.858Z,37.02
2024-04-24T00:45:17.037Z,36.96
2024-04-24T00:47:47.494Z,36.77
2024-04-24T00:50:19.666Z,37.08
2024-04-24T00:52:49.946Z,36.95
2024-04-24T00:55:22.977Z,36.76
2024-04-24T00:57:56.449Z,37.15
2024-04-24T01:00:26.854Z,36.72
2024-04-24T01:02:57.179Z,36.94
2024-04-24T01:05:30.496Z,37.14
2024-04-24T01:08:00.964Z,37.20
2024-04-24T01:10:36.603Z,36.90
2024-04-24T01:13:07.028Z,36.53
2024-04-24T01:15:40.529Z,36.87
2024-04-24T01:18:10.958Z,36.58
2024-04-24T01:20:42.569Z,37.15
2024-04-24T01:23:27.048Z,36.67
2024-04-24T01:26:08.043Z,36.49
2024-04-24T01:28:41.170Z,36.85
2024-04-24T01:31:09.292Z,36.62
2024-04-24T01:33:39.454Z,36.81
2024-04-24T01:36:10.113Z,36.41
2024-04-24T01:38:40.210Z,36.57
2024-04-24T01:41:07.739Z,36.75
2024-04-24T01:43:40.533Z,36.32
2024-04-24T01:46:10.654Z,36.69
2024-04-24T01:48:43.775Z,36.18
2024-04-24T01:51:13.971Z,36.72
2024-04-24T01:53:46.891Z,36.74
2024-04-24T01:56:17.145Z,36.58
2024-04-24T01:58:49.959Z,36.77
2024-04-24T02:01:20.158Z,36.62
2024-04-24T02:03:50.415Z,36.78
2024-04-24T02:06:21.254Z,36.19
2024-04-24T02:08:51.467Z,36.25
2024-04-24T02:11:22.322Z,36.50
2024-04-24T02:13:55.276Z,36.08
2024-04-24T02:16:25.466Z,35.98
2024-04-24T02:18:55.685Z,36.07
2024-04-24T02:21:28.491Z,36.64
2024-04-24T02:23:59.742Z,36.00
2024-04-24T02:26:27.405Z,35.91
2024-04-24T02:29:00.316Z,36.34
2024-04-24T02:31:30.474Z,36.10
2024-04-24T02:34:02.442Z,36.00
2024-04-24T02:36:32.691Z,35.96
2024-04-24T02:39:02.915Z,36.54
2024-04-24T02:41:34.448Z,36.35
2024-04-24T02:44:07.447Z,36.30
2024-04-24T02:46:42.044Z,36.16
2024-04-24T02:49:12.232Z,36.09
2024-04-24T02:51:42.380Z,36.04
2024-04-24T02:54:12.562Z,35.99
2024-04-24T02:56:44.967Z,36.11
2024-04-24T02:59:17.826Z,36.43
2024-04-24T03:01:48.242Z,36.05
2024-04-24T03:04:18.518Z,36.29
2024-04-24T03:06:48.673Z,36.14
2024-04-24T03:09:18.818Z,36.17
2024-04-24T03:11:49.160Z,36.04
2024-04-24T03:14:24.521Z,35.56
2024-04-24T03:16:54.853Z,35.68
2024-04-24T03:19:25.056Z,35.96
2024-04-24T03:21:55.872Z,36.00
2024-04-24T03:24:26.143Z,36.13
2024-04-24T03:26:56.289Z,36.12
2024-04-24T03:29:29.248Z,35.75
2024-04-24T03:31:59.585Z,35.94
2024-04-24T03:34:29.889Z,35.88
2024-04-24T03:37:00.053Z,36.11
2024-04-24T03:39:30.287Z,35.76
2024-04-24T03:42:00.442Z,35.96
2024-04-24T03:44:34.420Z,35.96
2024-04-24T03:47:07.794Z,35.93
2024-04-24T03:49:41.287Z,36.05
2024-04-24T03:52:11.486Z,35.40
2024-04-24T03:54:41.711Z,36.15
2024-04-24T03:57:12.198Z,35.66
2024-04-24T03:59:44.957Z,35.54
2024-04-24T04:02:15.135Z,35.91
2024-04-24T04:04:45.325Z,36.03
2024-04-24T04:07:15.485Z,35.61
2024-04-24T04:09:45.674Z,35.70
2024-04-24T04:12:15.932Z,35.90
2024-04-24T04:14:48.713Z,35.71
2024-04-24T04:17:26.550Z,35.24
2024-04-24T04:19:56.763Z,35.49
2024-04-24T04:22:30.226Z,35.53
2024-04-24T04:25:00.401Z,35.84
2024-04-24T04:27:32.224Z,35.73
2024-04-24T04:30:05.233Z,35.68
2024-04-24T04:32:35.470Z,35.85
2024-04-24T04:35:08.650Z,35.66
2024-04-24T04:37:39.764Z,36.18
2024-04-24T04:40:11.327Z,36.43
2024-04-24T04:42:41.553Z,36.04
2024-04-24T04:45:14.570Z,35.78
2024-04-24T04:47:44.863Z,35.99
2024-04-24T04:50:15.167Z,35.90
2024-04-24T04:52:45.406Z,36.25
2024-04-24T04:55:15.637Z,36.25
2024-04-24T04:57:45.850Z,35.81
2024-04-24T05:00:19.220Z,36.32
2024-04-24T05:02:49.679Z,36.24
2024-04-24T05:05:20.508Z,35.97
2024-04-24T05:07:50.732Z,36.23
2024-04-24T05:10:20.922Z,36.21
2024-04-24T05:12:53.888Z,36.15
2024-04-24T05:15:26.673Z,36.55
2024-04-24T05:17:56.997Z,36.43
2024-04-24T05:20:27.491Z,36.02
2024-04-24T05:23:01.884Z,35.84
2024-04-24T05:25:33.696Z,36.36
2024-04-24T05:28:25.318Z,35.93
2024-04-24T05:30:58.150Z,36.24
2024-04-24T05:33:28.364Z,35.97
2024-04-24T05:35:58.749Z,36.20
2024-04-24T05:38:28.920Z,35.90
2024-04-24T05:40:59.273Z,36.23
2024-04-24T05:43:29.433Z,36.23
2024-04-24T05:46:02.249Z,36.02
2024-04-24T05:48:32.427Z,36.05
2024-04-24T05:51:02.656Z,36.17
2024-04-24T05:53:32.795Z,36.12
2024-04-24T05:56:05.640Z,35.94
2024-04-24T05:58:38.448Z,35.78
2024-04-24T06:01:11.324Z,36.13
2024-04-24T06:03:41.495Z,35.90
2024-04-24T06:06:11.654Z,36.21
2024-04-24T06:08:41.798Z,37.38
2024-04-24T06:11:14.055Z,36.45
2024-04-24T06:13:44.340Z,36.33
2024-04-24T06:16:17.189Z,36.52
2024-04-24T06:18:47.481Z,36.43
2024-04-24T06:21:17.654Z,36.43
2024-04-24T06:23:47.826Z,36.05
2024-04-24T06:26:18.046Z,36.09
2024-04-24T06:28:48.374Z,36.35
2024-04-24T06:31:21.240Z,36.44
2024-04-24T06:33:53.863Z,36.32
2024-04-24T06:36:24.050Z,35.91
2024-04-24T06:38:51.633Z,36.36
2024-04-24T06:41:21.898Z,36.18
2024-04-24T06:43:54.094Z,36.11
2024-04-24T06:46:26.988Z,35.62
2024-04-24T06:48:59.382Z,35.75
2024-04-24T06:51:32.122Z,35.59
2024-04-24T06:54:05.241Z,35.59
2024-04-24T06:56:35.425Z,36.11
2024-04-24T06:59:05.685Z,35.87
2024-04-24T07:01:38.697Z,35.88
2024-04-24T07:04:12.079Z,35.81
2024-04-24T07:06:42.242Z,35.88
2024-04-24T07:09:14.872Z,36.14
2024-04-24T07:11:45.224Z,36.04
2024-04-24T07:14:15.425Z,36.21
2024-04-24T07:16:48.290Z,36.41
2024-04-24T07:19:18.431Z,35.92
2024-04-24T07:21:48.594Z,36.18
2024-04-24T07:24:18.768Z,37.06
2024-04-24T07:26:48.945Z,36.96
2024-04-24T07:29:21.932Z,37.38
2024-04-24T07:31:54.898Z,37.57
2024-04-24T07:34:25.195Z,37.02
2024-04-24T07:36:55.351Z,36.61
2024-04-24T07:39:25.949Z,36.40
2024-04-24T07:41:56.357Z,36.29
2024-04-24T07:44:26.657Z,36.64
2024-04-24T07:47:02.404Z,36.60
2024-04-24T07:49:39.664Z,36.75
2024-04-24T07:52:09.883Z,36.58
2024-04-24T07:54:40.024Z,36.38
2024-04-24T07:57:12.944Z,36.70
2024-04-24T07:59:43.087Z,36.75
2024-04-24T08:02:15.943Z,36.63
2024-04-24T08:04:46.320Z,36.88
2024-04-24T08:07:16.526Z,36.94
2024-04-24T08:09:47.870Z,36.65
2024-04-24T08:12:18.231Z,37.15
2024-04-24T08:14:48.421Z,36.54
2024-04-24T08:17:22.897Z,36.78
2024-04-24T08:19:53.885Z,36.67
2024-04-24T08:22:24.785Z,37.22
2024-04-24T08:24:54.988Z,37.18
2024-04-24T08:27:25.243Z,37.05
2024-04-24T08:29:55.367Z,36.78
2024-04-24T08:32:28.492Z,36.88
2024-04-24T08:34:58.813Z,37.21
2024-04-24T08:37:29.011Z,36.96
2024-04-24T08:39:59.170Z,37.28
2024-04-24T08:42:29.513Z,36.74
2024-04-24T08:45:03.099Z,36.85
2024-04-24T08:47:36.748Z,36.60
2024-04-24T08:50:07.513Z,37.42
2024-04-24T08:52:40.515Z,37.51
2024-04-24T08:55:15.010Z,37.67
2024-04-24T08:57:46.587Z,37.76
2024-04-24T09:00:18.230Z,37.54
2024-04-24T09:03:04.690Z,37.17
2024-04-24T09:05:37.650Z,37.56
2024-04-24T09:08:10.729Z,37.30
2024-04-24T09:10:42.191Z,37.64
2024-04-24T09:13:14.776Z,37.79
2024-04-24T09:15:50.319Z,37.45
2024-04-24T09:18:23.282Z,37.47
2024-04-24T09:20:57.533Z,37.40
2024-04-24T09:23:28.282Z,37.44
2024-04-24T09:25:59.615Z,37.60
2024-04-24T09:28:29.810Z,37.49
2024-04-24T09:31:01.542Z,37.82
2024-04-24T09:33:35.603Z,38.07
2024-04-24T09:36:06.073Z,38.06
2024-04-24T09:38:36.932Z,38.20
2024-04-24T09:41:07.836Z,38.00
2024-04-24T09:43:40.997Z,37.93
2024-04-24T09:46:11.195Z,37.47
2024-04-24T09:48:44.212Z,37.57
2024-04-24T09:51:17.038Z,37.68
2024-04-24T09:53:50.172Z,38.19
2024-04-24T09:56:29.123Z,37.63
2024-04-24T09:59:02.622Z,38.07
2024-04-24T10:01:35.591Z,37.82
2024-04-24T10:04:10.213Z,37.93
2024-04-24T10:06:44.662Z,38.20
2024-04-24T10:09:16.963Z,38.50
2024-04-24T10:11:54.112Z,38.21
2024-04-24T10:14:32.956Z,38.36
2024-04-24T10:17:06.143Z,38.44
2024-04-24T10:19:39.897Z,38.62
2024-04-24T10:22:10.536Z,38.33
2024-04-24T10:24:41.286Z,38.61
2024-04-24T10:27:12.526Z,38.54
2024-04-24T10:29:44.374Z,38.89
2024-04-24T10:32:16.241Z,38.31
2024-04-24T10:34:50.090Z,38.69
2024-04-24T10:37:20.685Z,38.57
2024-04-24T10:39:53.191Z,38.62
2024-04-24T10:42:23.554Z,38.74
2024-04-24T10:44:57.625Z,38.61
2024-04-24T10:47:28.785Z,38.65
2024-04-24T10:50:02.827Z,38.70
2024-04-24T10:52:34.396Z,38.55
2024-04-24T10:55:12.698Z,38.55
2024-04-24T10:57:49.842Z,38.26
2024-04-24T11:00:24.330Z,38.33
2024-04-24T11:02:59.336Z,38.56
2024-04-24T11:05:39.026Z,38.52
2024-04-24T11:08:09.612Z,39.01
2024-04-24T11:10:39.888Z,39.20
2024-04-24T11:13:17.764Z,38.63
2024-04-24T11:15:54.785Z,38.80
2024-04-24T11:18:32.142Z,39.43
2024-04-24T11:21:05.046Z,39.56
2024-04-24T11:23:36.548Z,39.42
2024-04-24T11:26:06.981Z,39.69
2024-04-24T11:31:07.831Z,39.67
2024-04-24T11:33:40.159Z,39.34
2024-04-24T11:36:13.385Z,39.42
2024-04-24T11:38:44.621Z,39.47
2024-04-24T11:41:14.909Z,39.41
2024-04-24T11:43:47.945Z,39.61
2024-04-24T11:46:18.296Z,39.68
2024-04-24T11:48:52.081Z,39.62
2024-04-24T11:51:26.923Z,39.75
2024-04-24T11:53:58.910Z,39.52
2024-04-24T11:56:36.958Z,39.59
2024-04-24T11:59:08.463Z,39.59
2024-04-24T12:01:39.631Z,39.87
2024-04-24T12:04:10.119Z,39.96
2024-04-24T12:06:47.098Z,39.63
2024-04-24T12:09:18.235Z,39.71
2024-04-24T12:11:53.659Z,39.24
2024-04-24T12:14:26.777Z,39.23
2024-04-24T12:16:58.072Z,39.15
2024-04-24T12:19:28.293Z,39.25
2024-04-24T12:22:02.172Z,39.31
2024-04-24T12:24:33.914Z,39.48
2024-04-24T12:27:04.156Z,39.57
2024-04-24T12:29:34.511Z,38.82
2024-04-24T12:32:06.601Z,39.33
2024-04-24T12:34:36.833Z,39.61
2024-04-24T12:37:09.808Z,38.94
2024-04-24T12:39:40.113Z,38.88
2024-04-24T12:42:11.002Z,39.20
2024-04-24T12:44:41.229Z,39.26
2024-04-24T12:47:13.831Z,38.80
2024-04-24T12:49:44.137Z,38.91
2024-04-24T12:52:17.049Z,38.86
2024-04-24T12:54:48.019Z,38.86
2024-04-24T12:57:18.705Z,38.96
2024-04-24T12:59:48.881Z,38.80
2024-04-24T13:02:19.162Z,39.29
2024-04-24T13:04:49.744Z,38.90
2024-04-24T13:07:22.592Z,39.22
2024-04-24T13:09:52.846Z,38.99
2024-04-24T13:12:23.866Z,39.50
2024-04-24T13:14:54.274Z,39.27
2024-04-24T13:17:24.662Z,39.33
2024-04-24T13:19:55.107Z,39.13
2024-04-24T13:22:27.936Z,39.41
2024-04-24T13:24:58.158Z,38.98
2024-04-24T13:27:31.533Z,39.09
2024-04-24T13:30:02.971Z,38.82
2024-04-24T13:32:34.747Z,39.36
2024-04-24T13:35:05.075Z,39.40
2024-04-24T13:37:39.109Z,39.32
2024-04-24T13:40:10.648Z,38.83
2024-04-24T13:42:40.832Z,39.01
2024-04-24T13:45:11.290Z,39.04
2024-04-24T13:47:41.691Z,39.33
2024-04-24T13:50:15.200Z,39.35
2024-04-24T13:52:49.372Z,39.28
2024-04-24T13:55:17.016Z,39.26
2024-04-24T13:57:47.269Z,39.64
2024-04-24T14:00:18.748Z,39.14
2024-04-24T14:02:49.029Z,39.30
2024-04-24T14:05:19.320Z,39.34
2024-04-24T14:07:52.117Z,39.35
2024-04-24T14:10:22.304Z,39.45
2024-04-24T14:12:52.490Z,39.25
2024-04-24T14:15:22.640Z,39.14
2024-04-24T14:17:52.794Z,38.96
2024-04-24T14:20:23.129Z,39.40
2024-04-24T14:22:56.032Z,39.11
2024-04-24T14:25:26.334Z,39.52
2024-04-24T14:27:56.491Z,38.78
2024-04-24T14:30:26.686Z,39.66
2024-04-24T14:32:57.470Z,39.27
2024-04-24T14:35:27.874Z,39.20
2024-04-24T14:38:00.776Z,39.18
2024-04-24T14:40:30.957Z,39.54
2024-04-24T14:43:04.268Z,39.07
2024-04-24T14:45:36.334Z,39.86
2024-04-24T14:48:07.024Z,39.52
2024-04-24T14:50:37.679Z,39.12
2024-04-24T14:53:10.664Z,39.57
2024-04-24T14:55:42.554Z,39.65
2024-04-24T14:58:13.269Z,39.19
2024-04-24T15:00:43.592Z,39.28
2024-04-24T15:03:14.020Z,39.60
2024-04-24T15:05:44.430Z,39.61
2024-04-24T15:08:17.268Z,39.80
2024-04-24T15:10:47.675Z,39.97
2024-04-24T15:13:17.949Z,39.22
2024-04-24T15:15:48.717Z,39.83
2024-04-24T15:18:19.160Z,39.98
2024-04-24T15:20:49.590Z,39.55
2024-04-24T15:23:22.597Z,39.21
2024-04-24T15:25:52.823Z,39.98
2024-04-24T15:28:22.963Z,39.80
2024-04-24T15:30:53.190Z,39.59
2024-04-24T15:33:23.504Z,39.66
2024-04-24T15:35:53.780Z,40.08
2024-04-24T15:38:29.568Z,40.18
2024-04-24T15:40:59.779Z,40.43
2024-04-24T15:43:30.061Z,39.77
2024-04-24T15:46:00.465Z,40.50
2024-04-24T15:48:30.766Z,41.32
2024-04-24T15:51:01.126Z,40.79
2024-04-24T15:53:33.994Z,42.04
2024-04-24T15:56:04.294Z,42.93
2024-04-24T15:58:34.671Z,44.22
2024-04-24T16:01:04.939Z,44.11
2024-04-24T16:03:36.479Z,44.85
2024-04-24T16:06:07.163Z,44.46
2024-04-24T16:08:40.032Z,45.56
2024-04-24T16:11:10.327Z,45.86
2024-04-24T16:13:41.170Z,45.78
2024-04-24T16:16:11.554Z,45.71
2024-04-24T16:18:46.187Z,44.64
2024-04-24T16:21:19.759Z,44.08
2024-04-24T16:23:50.040Z,44.14
2024-04-24T16:26:20.276Z,44.07
2024-04-24T16:28:50.509Z,45.32
2024-04-24T16:31:20.815Z,45.68
2024-04-24T16:33:51.126Z,46.30
2024-04-24T16:36:21.457Z,46.71
2024-04-24T16:38:54.419Z,45.32
2024-04-24T16:41:26.155Z,44.94
2024-04-24T16:43:58.948Z,44.21
2024-04-24T16:46:32.338Z,45.25
2024-04-24T16:49:05.505Z,45.41
2024-04-24T16:51:40.432Z,45.55
2024-04-24T16:54:13.283Z,45.30
2024-04-24T16:56:43.548Z,45.28
2024-04-24T16:59:13.790Z,45.86
2024-04-24T17:01:44.197Z,45.60
2024-04-24T17:04:14.945Z,45.47
2024-04-24T17:06:47.693Z,45.06
2024-04-24T17:09:20.801Z,45.52
2024-04-24T17:11:51.180Z,45.00
2024-04-24T17:14:21.765Z,45.03
2024-04-24T17:16:52.042Z,45.21
2024-04-24T17:19:22.345Z,45.51
2024-04-24T17:21:52.630Z,44.81
2024-04-24T17:24:25.537Z,45.16
2024-04-24T17:26:56.046Z,45.29
2024-04-24T17:29:26.386Z,44.91
2024-04-24T17:31:57.113Z,45.01
2024-04-24T17:34:27.363Z,44.79
2024-04-24T17:36:57.588Z,45.04
2024-04-24T17:39:30.895Z,45.00
2024-04-24T17:42:02.496Z,44.72
2024-04-24T17:44:32.774Z,45.04
2024-04-24T17:47:03.004Z,44.64
2024-04-24T17:49:33.256Z,45.05
2024-04-24T17:52:03.467Z,45.18
2024-04-24T17:54:37.103Z,44.41
2024-04-24T17:57:07.666Z,45.03
2024-04-24T17:59:41.168Z,44.71
2024-04-24T18:02:11.583Z,44.89
2024-04-24T18:04:44.416Z,45.01
2024-04-24T18:07:14.612Z,44.68
2024-04-24T18:09:47.441Z,45.00
2024-04-24T18:12:17.708Z,44.73
2024-04-24T18:14:45.771Z,45.09
2024-04-24T18:17:17.089Z,44.41
2024-04-24T18:19:47.695Z,45.03
2024-04-24T18:22:17.936Z,45.53
2024-04-24T18:24:50.948Z,45.20
2024-04-24T18:27:21.197Z,44.72
2024-04-24T18:29:51.476Z,44.49
2024-04-24T18:32:22.211Z,44.50
2024-04-24T18:34:52.429Z,44.87
2024-04-24T18:37:22.584Z,44.50
2024-04-24T18:39:55.574Z,44.58
2024-04-24T18:42:25.895Z,44.94
2024-04-24T18:44:56.097Z,44.84
2024-04-24T18:47:29.373Z,44.48
2024-04-24T18:49:57.066Z,44.43
2024-04-24T18:52:27.224Z,44.72
2024-04-24T18:55:00.162Z,45.11
2024-04-24T18:57:35.816Z,44.63
2024-04-24T19:00:11.336Z,44.61
2024-04-24T19:02:41.780Z,44.44
2024-04-24T19:05:14.159Z,44.51
2024-04-24T19:07:45.161Z,45.01
2024-04-24T19:10:20.058Z,44.50
2024-04-24T19:12:50.261Z,44.55
2024-04-24T19:15:22.299Z,44.86
2024-04-24T19:17:52.661Z,44.02
2024-04-24T19:20:22.988Z,44.05
2024-04-24T19:22:53.239Z,44.02
2024-04-24T19:25:26.159Z,43.79
2024-04-24T19:27:56.357Z,43.54
2024-04-24T19:30:26.715Z,43.84
2024-04-24T19:32:58.005Z,43.86
2024-04-24T19:35:31.759Z,43.95
2024-04-24T19:38:02.072Z,43.74
2024-04-24T19:40:34.937Z,43.55
2024-04-24T19:43:08.105Z,43.79
2024-04-24T19:45:38.596Z,43.84
2024-04-24T19:48:10.091Z,43.55
2024-04-24T19:50:40.588Z,43.50
2024-04-24T19:53:10.959Z,43.49
2024-04-24T19:55:43.816Z,43.26
2024-04-24T19:58:14.148Z,43.90
2024-04-24T20:00:50.650Z,43.76
2024-04-24T20:03:21.016Z,43.31
2024-04-24T20:05:51.295Z,43.56
2024-04-24T20:08:21.535Z,43.24
2024-04-24T20:10:55.166Z,43.26
2024-04-24T20:13:25.425Z,43.23
2024-04-24T20:15:55.654Z,42.98
2024-04-24T20:18:26.029Z,42.92
2024-04-24T20:20:56.444Z,43.32
2024-04-24T20:23:26.723Z,43.28
2024-04-24T20:25:59.626Z,43.07
2024-04-24T20:28:31.479Z,42.94
2024-04-24T20:31:01.735Z,43.06
2024-04-24T20:33:32.087Z,42.65
2024-04-24T20:36:03.625Z,42.65
2024-04-24T20:38:33.903Z,42.96
2024-04-24T20:41:09.936Z,43.06
2024-04-24T20:43:40.176Z,43.22
2024-04-24T20:46:10.739Z,42.71
2024-04-24T20:48:41.002Z,42.81
2024-04-24T20:51:11.764Z,42.47
2024-04-24T20:53:42.224Z,42.77
2024-04-24T20:56:17.474Z,43.00
2024-04-24T20:58:48.051Z,42.96
2024-04-24T21:01:18.362Z,42.32
2024-04-24T21:03:48.685Z,42.53
2024-04-24T21:06:19.841Z,42.29
2024-04-24T21:08:51.587Z,42.67
2024-04-24T21:11:26.498Z,42.48
2024-04-24T21:13:58.338Z,42.52
2024-04-24T21:16:28.835Z,42.79
2024-04-24T21:18:59.109Z,42.75
2024-04-24T21:21:30.341Z,42.56
2024-04-24T21:24:00.535Z,42.74
2024-04-24T21:26:35.018Z,42.31
2024-04-24T21:29:05.484Z,42.17
2024-04-24T21:31:35.738Z,42.18
2024-04-24T21:34:06.002Z,42.44
2024-04-24T21:36:40.525Z,42.21
2024-04-24T21:39:13.588Z,41.87
2024-04-24T21:41:46.407Z,41.68
2024-04-24T21:44:16.695Z,41.71
2024-04-24T21:46:46.931Z,41.63
2024-04-24T21:49:17.268Z,41.89
2024-04-24T21:51:47.464Z,41.53
2024-04-24T21:54:17.650Z,41.70
2024-04-24T21:56:50.555Z,41.41
2024-04-24T21:59:20.739Z,41.42
2024-04-24T22:01:54.809Z,41.73
2024-04-24T22:04:25.089Z,41.27
2024-04-24T22:06:55.322Z,41.48
2024-04-24T22:09:26.259Z,41.43
2024-04-24T22:12:02.067Z,40.95
2024-04-24T22:14:32.413Z,40.93
2024-04-24T22:17:03.812Z,41.42
2024-04-24T22:19:37.209Z,41.16
2024-04-24T22:22:07.515Z,41.12
2024-04-24T22:24:37.679Z,41.16
2024-04-24T22:27:10.559Z,41.06
2024-04-24T22:29:40.743Z,40.93
2024-04-24T22:32:11.283Z,40.63
2024-04-24T22:34:41.584Z,41.24
2024-04-24T22:37:12.254Z,40.80
2024-04-24T22:39:42.435Z,40.51
2024-04-24T22:42:15.298Z,40.51
2024-04-24T22:44:45.469Z,40.62
2024-04-24T22:47:15.688Z,40.52
2024-04-24T22:49:47.301Z,40.45
2024-04-24T22:52:20.122Z,40.39
2024-04-24T22:54:50.339Z,40.36
2024-04-24T22:57:23.195Z,40.20
2024-04-24T22:59:53.398Z,40.90
2024-04-24T23:02:23.776Z,40.66
2024-04-24T23:04:54.031Z,40.26
2024-04-24T23:07:24.282Z,40.65
2024-04-24T23:09:55.254Z,40.45
2024-04-24T23:12:28.206Z,40.60
2024-04-24T23:14:58.431Z,40.75
2024-04-24T23:17:28.690Z,40.47
2024-04-24T23:19:58.949Z,40.26
2024-04-24T23:22:29.501Z,40.09
2024-04-24T23:24:59.691Z,39.89
2024-04-24T23:27:32.533Z,40.35
2024-04-24T23:30:03.239Z,39.74
2024-04-24T23:32:36.645Z,40.06
2024-04-24T23:35:08.736Z,40.06
2024-04-24T23:37:39.277Z,41.32
2024-04-24T23:40:10.875Z,41.06
2024-04-24T23:42:43.652Z,41.55
2024-04-24T23:45:13.863Z,41.32
2024-04-24T23:47:44.215Z,41.76
2024-04-24T23:50:14.523Z,41.82
2024-04-24T23:52:48.039Z,42.09
2024-04-24T23:55:18.266Z,42.04
2024-04-24T23:57:51.120Z,42.11
